sensor_id;sensor_type;location;lat;lon;timestamp;pressure;altitude;pressure_sealevel;temperature;humidity
76216;BME280;65010;50.190;18.930;2023-11-19T00:02:29;98826.69;;;1.38;62.59
76216;BME280;65010;50.190;18.930;2023-11-19T00:05:35;98825.78;;;1.39;62.85
76216;BME280;65010;50.190;18.930;2023-11-19T00:08:53;98832.91;;;1.35;62.68
76216;BME280;65010;50.190;18.930;2023-11-19T00:11:59;98829.78;;;1.30;62.89
76216;BME280;65010;50.190;18.930;2023-11-19T00:15:08;98829.69;;;1.32;63.01
76216;BME280;65010;50.190;18.930;2023-11-19T00:18:17;98822.03;;;1.30;62.99
76216;BME280;65010;50.190;18.930;2023-11-19T00:21:24;98823.47;;;1.21;63.06
76216;BME280;65010;50.190;18.930;2023-11-19T00:24:31;98816.84;;;1.17;63.40
76216;BME280;65010;50.190;18.930;2023-11-19T00:27:37;98810.75;;;1.18;63.68
76216;BME280;65010;50.190;18.930;2023-11-19T00:30:44;98811.47;;;1.20;63.42
76216;BME280;65010;50.190;18.930;2023-11-19T00:33:53;98809.63;;;1.22;63.32
76216;BME280;65010;50.190;18.930;2023-11-19T00:36:59;98805.16;;;1.24;63.45
76216;BME280;65010;50.190;18.930;2023-11-19T00:40:08;98805.88;;;1.26;63.56
76216;BME280;65010;50.190;18.930;2023-11-19T00:43:15;98810.13;;;1.27;63.54
76216;BME280;65010;50.190;18.930;2023-11-19T00:46:26;98820.47;;;1.27;63.40
76216;BME280;65010;50.190;18.930;2023-11-19T00:49:34;98806.47;;;1.30;63.33
76216;BME280;65010;50.190;18.930;2023-11-19T00:52:41;98800.38;;;1.31;63.88
76216;BME280;65010;50.190;18.930;2023-11-19T00:55:47;98803.69;;;1.33;63.66
76216;BME280;65010;50.190;18.930;2023-11-19T00:58:54;98789.84;;;1.34;63.65
76216;BME280;65010;50.190;18.930;2023-11-19T01:02:00;98791.69;;;1.32;63.35
76216;BME280;65010;50.190;18.930;2023-11-19T01:05:10;98804.66;;;1.32;63.51
76216;BME280;65010;50.190;18.930;2023-11-19T01:08:19;98808.34;;;1.28;63.37
76216;BME280;65010;50.190;18.930;2023-11-19T01:11:28;98802.75;;;1.21;63.56
76216;BME280;65010;50.190;18.930;2023-11-19T01:14:33;98801.72;;;1.24;63.63
76216;BME280;65010;50.190;18.930;2023-11-19T01:17:41;98788.91;;;1.22;63.44
76216;BME280;65010;50.190;18.930;2023-11-19T01:20:53;98775.22;;;1.20;63.83
76216;BME280;65010;50.190;18.930;2023-11-19T01:24:00;98775.44;;;1.17;64.13
76216;BME280;65010;50.190;18.930;2023-11-19T01:27:08;98772.22;;;1.14;64.31
76216;BME280;65010;50.190;18.930;2023-11-19T01:30:15;98767.16;;;1.12;64.54
76216;BME280;65010;50.190;18.930;2023-11-19T01:33:24;98746.63;;;1.09;64.69
76216;BME280;65010;50.190;18.930;2023-11-19T01:36:33;98733.06;;;1.05;64.91
76216;BME280;65010;50.190;18.930;2023-11-19T01:39:39;98736.91;;;1.00;64.84
76216;BME280;65010;50.190;18.930;2023-11-19T01:42:46;98745.06;;;0.94;64.93
76216;BME280;65010;50.190;18.930;2023-11-19T01:45:52;98742.63;;;0.92;64.35
76216;BME280;65010;50.190;18.930;2023-11-19T01:49:00;98729.34;;;0.84;64.29
76216;BME280;65010;50.190;18.930;2023-11-19T01:52:10;98711.34;;;0.82;64.73
76216;BME280;65010;50.190;18.930;2023-11-19T01:55:17;98708.66;;;0.84;64.69
76216;BME280;65010;50.190;18.930;2023-11-19T01:58:25;98703.59;;;0.82;64.48
76216;BME280;65010;50.190;18.930;2023-11-19T02:01:34;98703.06;;;0.77;64.39
76216;BME280;65010;50.190;18.930;2023-11-19T02:04:43;98699.53;;;0.78;64.33
76216;BME280;65010;50.190;18.930;2023-11-19T02:07:52;98686.91;;;0.74;64.19
76216;BME280;65010;50.190;18.930;2023-11-19T02:10:58;98674.38;;;0.67;64.25
76216;BME280;65010;50.190;18.930;2023-11-19T02:14:05;98671.28;;;0.62;64.34
76216;BME280;65010;50.190;18.930;2023-11-19T02:17:25;98655.97;;;0.59;64.45
76216;BME280;65010;50.190;18.930;2023-11-19T02:20:34;98636.63;;;0.52;64.51
76216;BME280;65010;50.190;18.930;2023-11-19T02:23:44;98627.59;;;0.45;64.54
76216;BME280;65010;50.190;18.930;2023-11-19T02:27:00;98615.63;;;0.44;64.62
76216;BME280;65010;50.190;18.930;2023-11-19T02:30:16;98618.00;;;0.47;64.96
76216;BME280;65010;50.190;18.930;2023-11-19T02:33:23;98618.00;;;0.47;65.09
76216;BME280;65010;50.190;18.930;2023-11-19T02:36:29;98617.91;;;0.48;64.81
76216;BME280;65010;50.190;18.930;2023-11-19T02:39:36;98610.22;;;0.47;64.64
76216;BME280;65010;50.190;18.930;2023-11-19T02:42:44;98605.06;;;0.47;64.82
76216;BME280;65010;50.190;18.930;2023-11-19T02:45:54;98587.69;;;0.36;64.89
76216;BME280;65010;50.190;18.930;2023-11-19T02:49:00;98582.22;;;0.28;65.16
76216;BME280;65010;50.190;18.930;2023-11-19T02:52:07;98569.69;;;0.22;65.72
76216;BME280;65010;50.190;18.930;2023-11-19T02:55:14;98569.56;;;0.23;65.67
76216;BME280;65010;50.190;18.930;2023-11-19T02:58:21;98571.06;;;0.27;65.60
76216;BME280;65010;50.190;18.930;2023-11-19T03:01:30;98548.28;;;0.33;65.38
76216;BME280;65010;50.190;18.930;2023-11-19T03:04:39;98557.59;;;0.35;65.11
76216;BME280;65010;50.190;18.930;2023-11-19T03:07:48;98573.81;;;0.37;65.17
76216;BME280;65010;50.190;18.930;2023-11-19T03:10:55;98577.25;;;0.38;65.07
76216;BME280;65010;50.190;18.930;2023-11-19T03:14:01;98567.41;;;0.43;64.72
76216;BME280;65010;50.190;18.930;2023-11-19T03:17:11;98566.50;;;0.44;64.80
76216;BME280;65010;50.190;18.930;2023-11-19T03:20:17;98553.56;;;0.44;64.83
76216;BME280;65010;50.190;18.930;2023-11-19T03:23:24;98546.63;;;0.44;64.71
76216;BME280;65010;50.190;18.930;2023-11-19T03:26:30;98528.22;;;0.49;64.64
76216;BME280;65010;50.190;18.930;2023-11-19T03:29:37;98525.94;;;0.44;64.85
76216;BME280;65010;50.190;18.930;2023-11-19T03:32:46;98524.19;;;0.45;64.78
76216;BME280;65010;50.190;18.930;2023-11-19T03:35:53;98532.75;;;0.45;64.42
76216;BME280;65010;50.190;18.930;2023-11-19T03:38:59;98527.91;;;0.41;64.32
76216;BME280;65010;50.190;18.930;2023-11-19T03:42:06;98532.59;;;0.36;64.62
76216;BME280;65010;50.190;18.930;2023-11-19T03:45:12;98515.50;;;0.33;64.45
76216;BME280;65010;50.190;18.930;2023-11-19T03:48:21;98491.41;;;0.33;64.53
76216;BME280;65010;50.190;18.930;2023-11-19T03:51:27;98482.75;;;0.34;65.16
76216;BME280;65010;50.190;18.930;2023-11-19T03:54:35;98488.72;;;0.34;65.33
76216;BME280;65010;50.190;18.930;2023-11-19T03:57:40;98474.25;;;0.32;65.40
76216;BME280;65010;50.190;18.930;2023-11-19T04:00:48;98472.88;;;0.39;65.65
76216;BME280;65010;50.190;18.930;2023-11-19T04:03:57;98465.53;;;0.45;65.58
76216;BME280;65010;50.190;18.930;2023-11-19T04:07:05;98454.88;;;0.50;65.27
76216;BME280;65010;50.190;18.930;2023-11-19T04:10:11;98453.72;;;0.54;64.74
76216;BME280;65010;50.190;18.930;2023-11-19T04:13:23;98457.13;;;0.55;64.81
76216;BME280;65010;50.190;18.930;2023-11-19T04:16:29;98456.22;;;0.56;64.77
76216;BME280;65010;50.190;18.930;2023-11-19T04:19:38;98465.63;;;0.57;64.94
76216;BME280;65010;50.190;18.930;2023-11-19T04:22:44;98466.75;;;0.53;64.64
76216;BME280;65010;50.190;18.930;2023-11-19T04:25:52;98464.19;;;0.53;64.74
76216;BME280;65010;50.190;18.930;2023-11-19T04:29:14;98459.91;;;0.52;64.69
76216;BME280;65010;50.190;18.930;2023-11-19T04:32:21;98451.16;;;0.54;64.87
76216;BME280;65010;50.190;18.930;2023-11-19T04:35:30;98438.13;;;0.56;64.66
76216;BME280;65010;50.190;18.930;2023-11-19T04:38:37;98432.09;;;0.55;64.71
76216;BME280;65010;50.190;18.930;2023-11-19T04:41:47;98428.88;;;0.52;64.63
76216;BME280;65010;50.190;18.930;2023-11-19T04:44:56;98424.88;;;0.47;65.00
76216;BME280;65010;50.190;18.930;2023-11-19T04:48:02;98423.75;;;0.39;65.03
76216;BME280;65010;50.190;18.930;2023-11-19T04:51:12;98428.31;;;0.35;65.05
76216;BME280;65010;50.190;18.930;2023-11-19T04:54:17;98433.06;;;0.41;65.54
76216;BME280;65010;50.190;18.930;2023-11-19T04:57:24;98415.69;;;0.43;65.40
76216;BME280;65010;50.190;18.930;2023-11-19T05:00:32;98426.63;;;0.60;65.32
76216;BME280;65010;50.190;18.930;2023-11-19T05:03:39;98420.88;;;0.67;65.20
76216;BME280;65010;50.190;18.930;2023-11-19T05:06:48;98405.25;;;0.69;65.11
76216;BME280;65010;50.190;18.930;2023-11-19T05:09:54;98386.22;;;0.70;64.90
76216;BME280;65010;50.190;18.930;2023-11-19T05:13:01;98383.41;;;0.73;64.91
76216;BME280;65010;50.190;18.930;2023-11-19T05:16:08;98372.00;;;0.76;64.79
76216;BME280;65010;50.190;18.930;2023-11-19T05:19:19;98377.06;;;0.77;64.67
76216;BME280;65010;50.190;18.930;2023-11-19T05:22:28;98365.56;;;0.81;64.84
76216;BME280;65010;50.190;18.930;2023-11-19T05:25:36;98366.00;;;0.75;64.73
76216;BME280;65010;50.190;18.930;2023-11-19T05:28:43;98367.16;;;0.71;65.17
76216;BME280;65010;50.190;18.930;2023-11-19T05:31:49;98357.72;;;0.59;65.48
76216;BME280;65010;50.190;18.930;2023-11-19T05:34:56;98351.22;;;0.53;65.59
76216;BME280;65010;50.190;18.930;2023-11-19T05:38:04;98347.09;;;0.50;66.01
76216;BME280;65010;50.190;18.930;2023-11-19T05:41:11;98336.94;;;0.47;66.20
76216;BME280;65010;50.190;18.930;2023-11-19T05:44:17;98321.56;;;0.46;66.04
76216;BME280;65010;50.190;18.930;2023-11-19T05:47:24;98332.84;;;0.45;66.27
76216;BME280;65010;50.190;18.930;2023-11-19T05:50:30;98336.13;;;0.47;66.58
76216;BME280;65010;50.190;18.930;2023-11-19T05:53:40;98343.06;;;0.46;66.84
76216;BME280;65010;50.190;18.930;2023-11-19T05:56:47;98379.34;;;0.58;67.25
76216;BME280;65010;50.190;18.930;2023-11-19T05:59:57;98368.06;;;0.59;67.14
76216;BME280;65010;50.190;18.930;2023-11-19T06:03:12;98356.38;;;0.53;67.27
76216;BME280;65010;50.190;18.930;2023-11-19T06:06:19;98365.47;;;0.59;67.67
76216;BME280;65010;50.190;18.930;2023-11-19T06:09:29;98355.72;;;0.62;67.66
76216;BME280;65010;50.190;18.930;2023-11-19T06:12:37;98361.09;;;0.59;68.03
76216;BME280;65010;50.190;18.930;2023-11-19T06:15:44;98345.72;;;0.58;68.51
76216;BME280;65010;50.190;18.930;2023-11-19T06:18:50;98358.31;;;0.62;68.78
76216;BME280;65010;50.190;18.930;2023-11-19T06:21:56;98354.56;;;0.66;68.97
76216;BME280;65010;50.190;18.930;2023-11-19T06:25:07;98330.84;;;0.73;69.01
76216;BME280;65010;50.190;18.930;2023-11-19T06:28:13;98330.19;;;0.82;68.96
76216;BME280;65010;50.190;18.930;2023-11-19T06:31:20;98315.84;;;0.89;68.90
76216;BME280;65010;50.190;18.930;2023-11-19T06:34:26;98302.69;;;0.92;68.59
76216;BME280;65010;50.190;18.930;2023-11-19T06:37:33;98294.47;;;0.98;68.52
76216;BME280;65010;50.190;18.930;2023-11-19T06:40:42;98293.16;;;1.04;68.83
76216;BME280;65010;50.190;18.930;2023-11-19T06:43:49;98286.59;;;1.11;68.62
76216;BME280;65010;50.190;18.930;2023-11-19T06:46:55;98291.22;;;1.19;68.56
76216;BME280;65010;50.190;18.930;2023-11-19T06:50:06;98284.03;;;1.22;68.40
76216;BME280;65010;50.190;18.930;2023-11-19T06:53:15;98283.78;;;1.25;68.19
76216;BME280;65010;50.190;18.930;2023-11-19T06:56:24;98281.22;;;1.25;68.59
76216;BME280;65010;50.190;18.930;2023-11-19T06:59:33;98272.84;;;1.22;68.71
76216;BME280;65010;50.190;18.930;2023-11-19T07:02:40;98264.75;;;1.26;68.66
76216;BME280;65010;50.190;18.930;2023-11-19T07:05:47;98281.44;;;1.22;68.61
76216;BME280;65010;50.190;18.930;2023-11-19T07:08:54;98287.44;;;1.23;68.43
76216;BME280;65010;50.190;18.930;2023-11-19T07:12:03;98261.91;;;1.18;68.83
76216;BME280;65010;50.190;18.930;2023-11-19T07:15:11;98284.38;;;1.18;69.29
76216;BME280;65010;50.190;18.930;2023-11-19T07:18:17;98259.91;;;1.22;68.98
76216;BME280;65010;50.190;18.930;2023-11-19T07:21:25;98270.63;;;1.28;69.02
76216;BME280;65010;50.190;18.930;2023-11-19T07:24:32;98257.44;;;1.32;69.12
76216;BME280;65010;50.190;18.930;2023-11-19T07:27:41;98252.25;;;1.32;69.07
76216;BME280;65010;50.190;18.930;2023-11-19T07:30:49;98256.72;;;1.29;69.13
76216;BME280;65010;50.190;18.930;2023-11-19T07:33:59;98263.69;;;1.29;69.52
76216;BME280;65010;50.190;18.930;2023-11-19T07:37:06;98266.50;;;1.37;69.40
76216;BME280;65010;50.190;18.930;2023-11-19T07:40:13;98251.56;;;1.41;69.48
76216;BME280;65010;50.190;18.930;2023-11-19T07:43:21;98250.03;;;1.38;69.13
76216;BME280;65010;50.190;18.930;2023-11-19T07:46:28;98250.25;;;1.35;69.10
76216;BME280;65010;50.190;18.930;2023-11-19T07:49:34;98238.38;;;1.33;69.59
76216;BME280;65010;50.190;18.930;2023-11-19T07:52:42;98234.72;;;1.35;69.75
76216;BME280;65010;50.190;18.930;2023-11-19T07:55:48;98220.94;;;1.46;69.81
76216;BME280;65010;50.190;18.930;2023-11-19T07:58:57;98207.28;;;1.55;69.81
76216;BME280;65010;50.190;18.930;2023-11-19T08:02:03;98201.25;;;1.66;69.91
76216;BME280;65010;50.190;18.930;2023-11-19T08:05:10;98189.69;;;1.70;69.11
76216;BME280;65010;50.190;18.930;2023-11-19T08:08:16;98169.13;;;1.68;69.20
76216;BME280;65010;50.190;18.930;2023-11-19T08:11:23;98182.41;;;1.75;68.70
76216;BME280;65010;50.190;18.930;2023-11-19T08:14:32;98188.28;;;1.77;68.62
76216;BME280;65010;50.190;18.930;2023-11-19T08:17:39;98181.09;;;1.81;68.47
76216;BME280;65010;50.190;18.930;2023-11-19T08:20:45;98186.00;;;1.84;68.38
76216;BME280;65010;50.190;18.930;2023-11-19T08:23:56;98189.19;;;1.87;68.43
76216;BME280;65010;50.190;18.930;2023-11-19T08:27:02;98187.31;;;1.89;68.13
76216;BME280;65010;50.190;18.930;2023-11-19T08:30:13;98188.00;;;1.92;68.63
76216;BME280;65010;50.190;18.930;2023-11-19T08:33:19;98183.13;;;1.98;68.34
76216;BME280;65010;50.190;18.930;2023-11-19T08:36:26;98162.41;;;1.98;68.06
76216;BME280;65010;50.190;18.930;2023-11-19T08:39:34;98156.88;;;2.03;68.21
76216;BME280;65010;50.190;18.930;2023-11-19T08:42:41;98164.38;;;2.06;68.20
76216;BME280;65010;50.190;18.930;2023-11-19T08:45:49;98152.69;;;2.12;67.86
76216;BME280;65010;50.190;18.930;2023-11-19T08:48:56;98165.66;;;2.12;67.73
76216;BME280;65010;50.190;18.930;2023-11-19T08:52:03;98170.38;;;2.06;67.80
76216;BME280;65010;50.190;18.930;2023-11-19T08:55:10;98164.25;;;2.07;67.86
76216;BME280;65010;50.190;18.930;2023-11-19T08:58:16;98152.50;;;2.03;68.09
76216;BME280;65010;50.190;18.930;2023-11-19T09:01:25;98141.31;;;2.03;68.27
76216;BME280;65010;50.190;18.930;2023-11-19T09:04:33;98137.34;;;1.99;68.37
76216;BME280;65010;50.190;18.930;2023-11-19T09:07:40;98129.78;;;1.96;68.65
76216;BME280;65010;50.190;18.930;2023-11-19T09:10:46;98114.00;;;1.99;68.96
76216;BME280;65010;50.190;18.930;2023-11-19T09:13:53;98091.91;;;2.04;69.17
76216;BME280;65010;50.190;18.930;2023-11-19T09:17:01;98111.41;;;2.20;68.72
76216;BME280;65010;50.190;18.930;2023-11-19T09:20:10;98128.81;;;2.29;68.79
76216;BME280;65010;50.190;18.930;2023-11-19T09:23:18;98124.38;;;2.41;69.24
76216;BME280;65010;50.190;18.930;2023-11-19T09:26:24;98110.06;;;2.46;68.78
76216;BME280;65010;50.190;18.930;2023-11-19T09:29:31;98092.88;;;2.45;68.24
76216;BME280;65010;50.190;18.930;2023-11-19T09:32:41;98095.06;;;2.50;68.55
76216;BME280;65010;50.190;18.930;2023-11-19T09:35:47;98090.63;;;2.62;68.61
76216;BME280;65010;50.190;18.930;2023-11-19T09:38:55;98066.50;;;2.71;68.16
76216;BME280;65010;50.190;18.930;2023-11-19T09:42:03;98071.56;;;2.82;68.28
76216;BME280;65010;50.190;18.930;2023-11-19T09:45:13;98055.34;;;2.90;67.93
76216;BME280;65010;50.190;18.930;2023-11-19T09:48:25;98034.34;;;2.93;67.99
76216;BME280;65010;50.190;18.930;2023-11-19T09:51:32;98035.88;;;3.05;67.71
76216;BME280;65010;50.190;18.930;2023-11-19T09:54:38;98032.44;;;3.15;67.30
76216;BME280;65010;50.190;18.930;2023-11-19T09:57:48;98022.38;;;3.21;67.47
76216;BME280;65010;50.190;18.930;2023-11-19T10:00:58;98012.13;;;3.29;67.18
76216;BME280;65010;50.190;18.930;2023-11-19T10:04:15;98007.75;;;3.49;67.19
76216;BME280;65010;50.190;18.930;2023-11-19T10:07:22;98003.34;;;3.69;67.02
76216;BME280;65010;50.190;18.930;2023-11-19T10:10:29;97987.72;;;3.99;66.93
76216;BME280;65010;50.190;18.930;2023-11-19T10:13:35;97983.97;;;4.21;65.95
76216;BME280;65010;50.190;18.930;2023-11-19T10:16:46;97983.13;;;4.30;65.21
76216;BME280;65010;50.190;18.930;2023-11-19T10:19:54;97968.00;;;4.43;64.76
76216;BME280;65010;50.190;18.930;2023-11-19T10:23:01;97957.78;;;4.60;64.50
76216;BME280;65010;50.190;18.930;2023-11-19T10:26:07;97966.88;;;4.74;64.30
76216;BME280;65010;50.190;18.930;2023-11-19T10:29:15;97955.69;;;4.91;63.18
76216;BME280;65010;50.190;18.930;2023-11-19T10:32:21;97952.47;;;4.97;62.14
76216;BME280;65010;50.190;18.930;2023-11-19T10:35:32;97950.69;;;4.98;60.65
76216;BME280;65010;50.190;18.930;2023-11-19T10:38:39;97946.69;;;5.03;60.92
76216;BME280;65010;50.190;18.930;2023-11-19T10:41:48;97939.69;;;5.04;60.45
76216;BME280;65010;50.190;18.930;2023-11-19T10:44:57;97932.91;;;4.93;59.42
76216;BME280;65010;50.190;18.930;2023-11-19T10:48:05;97908.88;;;4.81;60.45
76216;BME280;65010;50.190;18.930;2023-11-19T10:51:19;97914.13;;;4.72;59.97
76216;BME280;65010;50.190;18.930;2023-11-19T10:54:28;97913.69;;;4.58;60.44
76216;BME280;65010;50.190;18.930;2023-11-19T10:57:37;97907.41;;;4.51;61.11
76216;BME280;65010;50.190;18.930;2023-11-19T11:00:54;97911.81;;;4.50;61.58
76216;BME280;65010;50.190;18.930;2023-11-19T11:04:03;97914.69;;;4.47;61.82
76216;BME280;65010;50.190;18.930;2023-11-19T11:07:15;97902.13;;;4.43;62.22
76216;BME280;65010;50.190;18.930;2023-11-19T11:10:43;97897.88;;;4.42;62.93
76216;BME280;65010;50.190;18.930;2023-11-19T11:13:55;97891.31;;;4.38;63.28
76216;BME280;65010;50.190;18.930;2023-11-19T11:17:09;97879.66;;;4.42;63.53
76216;BME280;65010;50.190;18.930;2023-11-19T11:20:19;97881.25;;;4.53;64.51
76216;BME280;65010;50.190;18.930;2023-11-19T11:27:48;97861.78;;;4.57;63.60
76216;BME280;65010;50.190;18.930;2023-11-19T11:31:26;97857.16;;;4.50;64.11
76216;BME280;65010;50.190;18.930;2023-11-19T11:34:58;97846.66;;;4.24;63.93
76216;BME280;65010;50.190;18.930;2023-11-19T11:38:14;97855.34;;;4.05;64.71
76216;BME280;65010;50.190;18.930;2023-11-19T11:41:31;97856.50;;;3.93;65.18
76216;BME280;65010;50.190;18.930;2023-11-19T11:44:58;97842.28;;;3.87;65.74
76216;BME280;65010;50.190;18.930;2023-11-19T11:48:19;97824.81;;;3.80;65.69
76216;BME280;65010;50.190;18.930;2023-11-19T11:55:07;97814.75;;;3.57;65.90
76216;BME280;65010;50.190;18.930;2023-11-19T11:58:17;97826.25;;;3.55;66.88
76216;BME280;65010;50.190;18.930;2023-11-19T12:01:25;97817.34;;;3.57;66.77
76216;BME280;65010;50.190;18.930;2023-11-19T12:04:32;97808.47;;;3.60;67.14
76216;BME280;65010;50.190;18.930;2023-11-19T12:07:41;97809.66;;;3.65;66.91
76216;BME280;65010;50.190;18.930;2023-11-19T12:11:00;97798.03;;;3.69;66.58
76216;BME280;65010;50.190;18.930;2023-11-19T12:14:10;97803.28;;;3.60;66.66
76216;BME280;65010;50.190;18.930;2023-11-19T12:17:37;97796.00;;;3.63;66.37
76216;BME280;65010;50.190;18.930;2023-11-19T12:20:49;97792.72;;;3.61;66.63
76216;BME280;65010;50.190;18.930;2023-11-19T12:23:55;97781.13;;;3.56;66.50
76216;BME280;65010;50.190;18.930;2023-11-19T12:27:07;97774.88;;;3.48;66.28
76216;BME280;65010;50.190;18.930;2023-11-19T12:30:22;97769.28;;;3.43;67.07
76216;BME280;65010;50.190;18.930;2023-11-19T12:33:30;97770.81;;;3.36;67.12
76216;BME280;65010;50.190;18.930;2023-11-19T12:36:36;97766.00;;;3.41;67.36
76216;BME280;65010;50.190;18.930;2023-11-19T12:39:44;97749.13;;;3.55;68.30
76216;BME280;65010;50.190;18.930;2023-11-19T12:42:52;97744.69;;;3.65;67.94
76216;BME280;65010;50.190;18.930;2023-11-19T12:46:03;97753.38;;;3.56;67.40
76216;BME280;65010;50.190;18.930;2023-11-19T12:49:22;97751.44;;;3.58;68.15
76216;BME280;65010;50.190;18.930;2023-11-19T12:52:29;97746.00;;;3.52;67.88
76216;BME280;65010;50.190;18.930;2023-11-19T12:55:35;97720.66;;;3.36;68.61
76216;BME280;65010;50.190;18.930;2023-11-19T12:58:42;97727.13;;;3.22;68.69
76216;BME280;65010;50.190;18.930;2023-11-19T13:01:56;97732.44;;;3.20;69.12
76216;BME280;65010;50.190;18.930;2023-11-19T13:05:23;97739.25;;;3.31;69.28
76216;BME280;65010;50.190;18.930;2023-11-19T13:08:36;97740.47;;;3.27;68.96
76216;BME280;65010;50.190;18.930;2023-11-19T13:11:44;97728.59;;;3.24;69.77
76216;BME280;65010;50.190;18.930;2023-11-19T13:14:50;97720.56;;;3.18;69.99
76216;BME280;65010;50.190;18.930;2023-11-19T13:17:59;97715.28;;;3.09;70.54
76216;BME280;65010;50.190;18.930;2023-11-19T13:21:06;97705.84;;;3.08;70.71
76216;BME280;65010;50.190;18.930;2023-11-19T13:24:13;97716.38;;;3.07;70.90
76216;BME280;65010;50.190;18.930;2023-11-19T13:27:19;97719.53;;;3.01;71.31
76216;BME280;65010;50.190;18.930;2023-11-19T13:30:26;97710.34;;;3.06;71.35
76216;BME280;65010;50.190;18.930;2023-11-19T13:33:35;97695.84;;;3.14;71.92
76216;BME280;65010;50.190;18.930;2023-11-19T13:36:42;97695.16;;;3.21;71.63
76216;BME280;65010;50.190;18.930;2023-11-19T13:39:48;97679.28;;;3.24;72.25
76216;BME280;65010;50.190;18.930;2023-11-19T13:42:55;97680.75;;;3.27;72.27
76216;BME280;65010;50.190;18.930;2023-11-19T13:46:01;97684.56;;;3.33;72.36
76216;BME280;65010;50.190;18.930;2023-11-19T13:49:10;97688.75;;;3.43;72.36
76216;BME280;65010;50.190;18.930;2023-11-19T13:52:16;97686.16;;;3.43;72.36
76216;BME280;65010;50.190;18.930;2023-11-19T13:55:23;97680.28;;;3.41;72.64
76216;BME280;65010;50.190;18.930;2023-11-19T13:58:29;97667.53;;;3.48;72.64
76216;BME280;65010;50.190;18.930;2023-11-19T14:01:36;97676.13;;;3.48;72.78
76216;BME280;65010;50.190;18.930;2023-11-19T14:04:44;97670.28;;;3.46;72.74
76216;BME280;65010;50.190;18.930;2023-11-19T14:07:51;97670.00;;;3.49;73.17
76216;BME280;65010;50.190;18.930;2023-11-19T14:10:59;97670.00;;;3.49;73.01
76216;BME280;65010;50.190;18.930;2023-11-19T14:14:06;97648.63;;;3.56;72.98
76216;BME280;65010;50.190;18.930;2023-11-19T14:17:12;97657.75;;;3.60;73.36
76216;BME280;65010;50.190;18.930;2023-11-19T14:32:27;97657.19;;;3.66;73.51
76216;BME280;65010;50.190;18.930;2023-11-19T14:35:34;97654.72;;;3.64;73.92
76216;BME280;65010;50.190;18.930;2023-11-19T14:38:40;97645.53;;;3.70;73.99
76216;BME280;65010;50.190;18.930;2023-11-19T14:41:47;97647.59;;;3.66;73.73
76216;BME280;65010;50.190;18.930;2023-11-19T14:44:53;97643.06;;;3.68;73.76
76216;BME280;65010;50.190;18.930;2023-11-19T14:48:03;97647.81;;;3.73;74.20
76216;BME280;65010;50.190;18.930;2023-11-19T14:51:09;97641.00;;;3.72;73.98
76216;BME280;65010;50.190;18.930;2023-11-19T14:54:16;97635.00;;;3.72;73.84
76216;BME280;65010;50.190;18.930;2023-11-19T14:57:22;97634.09;;;3.81;73.91
76216;BME280;65010;50.190;18.930;2023-11-19T15:00:29;97639.53;;;3.87;73.68
76216;BME280;65010;50.190;18.930;2023-11-19T15:03:37;97642.50;;;3.93;73.52
76216;BME280;65010;50.190;18.930;2023-11-19T15:06:50;97641.38;;;3.95;73.58
76216;BME280;65010;50.190;18.930;2023-11-19T15:09:55;97644.22;;;4.02;73.63
76216;BME280;65010;50.190;18.930;2023-11-19T15:13:04;97653.44;;;3.96;73.36
76216;BME280;65010;50.190;18.930;2023-11-19T15:16:11;97656.47;;;3.92;73.46
76216;BME280;65010;50.190;18.930;2023-11-19T15:19:23;97646.91;;;3.92;73.54
76216;BME280;65010;50.190;18.930;2023-11-19T15:22:29;97658.78;;;3.95;73.75
76216;BME280;65010;50.190;18.930;2023-11-19T15:25:35;97650.84;;;3.96;73.51
76216;BME280;65010;50.190;18.930;2023-11-19T15:28:41;97653.97;;;4.00;73.51
76216;BME280;65010;50.190;18.930;2023-11-19T15:31:48;97643.38;;;4.01;73.68
76216;BME280;65010;50.190;18.930;2023-11-19T15:34:57;97645.31;;;3.99;73.92
76216;BME280;65010;50.190;18.930;2023-11-19T15:38:03;97646.81;;;4.02;73.60
76216;BME280;65010;50.190;18.930;2023-11-19T15:41:12;97658.31;;;3.99;73.66
76216;BME280;65010;50.190;18.930;2023-11-19T15:44:18;97640.50;;;4.04;73.88
76216;BME280;65010;50.190;18.930;2023-11-19T15:47:24;97638.84;;;4.03;73.98
76216;BME280;65010;50.190;18.930;2023-11-19T15:50:34;97650.44;;;4.09;73.85
76216;BME280;65010;50.190;18.930;2023-11-19T15:53:40;97650.44;;;4.09;73.90
76216;BME280;65010;50.190;18.930;2023-11-19T15:56:46;97650.31;;;4.10;74.08
76216;BME280;65010;50.190;18.930;2023-11-19T15:59:52;97656.38;;;4.19;73.94
76216;BME280;65010;50.190;18.930;2023-11-19T16:02:59;97653.50;;;4.22;73.89
76216;BME280;65010;50.190;18.930;2023-11-19T16:06:08;97646.78;;;4.20;73.79
76216;BME280;65010;50.190;18.930;2023-11-19T16:09:16;97643.53;;;4.18;73.90
76216;BME280;65010;50.190;18.930;2023-11-19T16:12:24;97640.16;;;4.25;73.80
76216;BME280;65010;50.190;18.930;2023-11-19T16:15:31;97630.94;;;4.31;73.97
76216;BME280;65010;50.190;18.930;2023-11-19T16:18:38;97639.28;;;4.35;73.84
76216;BME280;65010;50.190;18.930;2023-11-19T16:21:47;97637.88;;;4.40;73.55
76216;BME280;65010;50.190;18.930;2023-11-19T16:24:53;97644.69;;;4.41;73.48
76216;BME280;65010;50.190;18.930;2023-11-19T16:28:00;97638.53;;;4.42;73.39
76216;BME280;65010;50.190;18.930;2023-11-19T16:31:06;97645.50;;;4.42;73.43
76216;BME280;65010;50.190;18.930;2023-11-19T16:34:13;97639.47;;;4.41;73.71
76216;BME280;65010;50.190;18.930;2023-11-19T16:37:22;97640.81;;;4.45;73.38
76216;BME280;65010;50.190;18.930;2023-11-19T16:40:28;97633.66;;;4.47;73.27
76216;BME280;65010;50.190;18.930;2023-11-19T16:43:34;97650.59;;;4.52;73.13
76216;BME280;65010;50.190;18.930;2023-11-19T16:46:41;97650.59;;;4.52;73.22
76216;BME280;65010;50.190;18.930;2023-11-19T16:49:47;97646.72;;;4.56;73.35
76216;BME280;65010;50.190;18.930;2023-11-19T16:52:57;97639.75;;;4.56;73.18
76216;BME280;65010;50.190;18.930;2023-11-19T16:56:05;97636.03;;;4.59;73.01
76216;BME280;65010;50.190;18.930;2023-11-19T16:59:12;97656.22;;;4.65;73.01